South Hamilton, Massachusetts
Current Conditions -  °F | °C
As of 6:53 AM on Monday 20 Oct 2014 (Local Time) from KBVY Reporting Station
Scattered Clouds Scattered Clouds  
Wind Chill: 27°   Ceiling: Unl
Heat Index: 34°   Visibility: 10mi
Dew Point: 25°   Wind: 8mph
Humidity: 70%   Direction: 250°WSW
Pressure: 30.02"   Gusts: NA
Location:  42.61°N, 70.88°W
Report Text: KBVY 201053Z 25007KT 10SM SCT200 01/M04 A3002 RMK AO2 SLP161 T00111039
Loading
Personal Weather Stations






























Interactive Weather Map
Tropical Storm Tracking
New forecast layout! Learn more

10-Day Weather Forecast

Advertisements
Track Severe Weather on mobile